< < Back
Terminal Aerodrome Forecast


Current Version              Previous Versions:   1  2  3  4  5  6  7  8  9  

Terminal Aerodrome Forecast

962
FTUS44 KMRX 191720
TAFTYS
TAF
KTYS 191720Z 1918/2018 01006KT P6SM BKN250
     FM200400 02003KT P6SM BKN100
     FM200800 02003KT 6SM -RA OVC050
     FM201200 03005KT P6SM OVC035=

Latest METAR

576
SAUS80 KWBC 201600 RRB
MTRTYS
METAR KTYS 201553Z 05003KT 10SM OVC024 04/M01 A3023 RMK AO2 SLP240
T00441006


USA.gov is the U.S. government's official web portal to all federal, state and local government web resources and services.